East Texas Regional Airport Longview US
ICAO: KGGG
IATA: GGG
Category: Medium
Scheduled Services: Yes

Elevation: 365 ft
TransAlt. 18000 ft.

Airport Communications:
LONGVIEW APP/DEP:118.25
ATIS:119.65
CTAF:119.2
GND:121.6
TWR:119.2
UNICOM:122.95

KGGG Zoom In..

If you have problems with the map follow the link
https://www.worldairports.se/pages/airport.php?
ICAO=KGGG

Runways:

(A) RW 13 length 10000 ft width 150 ft
ILS 109.50 / hdg 131

(B) RW 18 length 6109 ft width 150 ft
---- / hdg 176

(C) RW 31 length 10000 ft width 150 ft
---- / hdg 311

(D) RW 36 length 6109 ft width 150 ft
---- / hdg 356

Location; KGGG
Day. 08 / Time. 17.53 Zulu
* Altimeter: 30.05
* Temperature: 12° c. 53.6°f.
* Wind from: 180° Speed 11 kn.
Dewpoint: -01° c.
Visibility: 6 Statute Miles.
Clouds: Overcast 700 ft.
Conditions: Haze.

KGGG 081753Z 18011KT 6SM HZ OVC007 12/M01 A3005 RMK AO2 SLP177 T01171011 10117 20083 58014


Wind From 180°
Speed 11 kn.

 
 
jpsmedia worldairports.se 2019   terms of use